地図

経路データ

SID SEASON NUMBER BASIN SUBBASIN NAME ISO_TIME NATURE LAT LON WMO_WIND WMO_PRES WMO_AGENCY TRACK_TYPE DIST2LAND LANDFALL IFLAG USA_AGENCY USA_ATCF_ID USA_LAT USA_LON USA_RECORD USA_STATUS USA_WIND USA_PRES USA_SSHS USA_R34_NE USA_R34_SE USA_R34_SW USA_R34_NW USA_R50_NE USA_R50_SE USA_R50_SW USA_R50_NW USA_R64_NE USA_R64_SE USA_R64_SW USA_R64_NW USA_POCI USA_ROCI USA_RMW USA_EYE TOKYO_LAT TOKYO_LON TOKYO_GRADE TOKYO_WIND TOKYO_PRES TOKYO_R50_DIR TOKYO_R50_LONG TOKYO_R50_SHORT TOKYO_R30_DIR TOKYO_R30_LONG TOKYO_R30_SHORT TOKYO_LAND CMA_LAT CMA_LON CMA_CAT CMA_WIND CMA_PRES HKO_LAT HKO_LON HKO_CAT HKO_WIND HKO_PRES NEWDELHI_LAT NEWDELHI_LON NEWDELHI_GRADE NEWDELHI_WIND NEWDELHI_PRES NEWDELHI_CI NEWDELHI_DP NEWDELHI_POCI REUNION_LAT REUNION_LON REUNION_TYPE REUNION_WIND REUNION_PRES REUNION_TNUM REUNION_CI REUNION_RMW REUNION_R34_NE REUNION_R34_SE REUNION_R34_SW REUNION_R34_NW REUNION_R50_NE REUNION_R50_SE REUNION_R50_SW REUNION_R50_NW REUNION_R64_NE REUNION_R64_SE REUNION_R64_SW REUNION_R64_NW BOM_LAT BOM_LON BOM_TYPE BOM_WIND BOM_PRES BOM_TNUM BOM_CI BOM_RMW BOM_R34_NE BOM_R34_SE BOM_R34_SW BOM_R34_NW BOM_R50_NE BOM_R50_SE BOM_R50_SW BOM_R50_NW BOM_R64_NE BOM_R64_SE BOM_R64_SW BOM_R64_NW BOM_ROCI BOM_POCI BOM_EYE BOM_POS_METHOD BOM_PRES_METHOD NADI_LAT NADI_LON NADI_CAT NADI_WIND NADI_PRES WELLINGTON_LAT WELLINGTON_LON WELLINGTON_WIND WELLINGTON_PRES DS824_LAT DS824_LON DS824_STAGE DS824_WIND DS824_PRES TD9636_LAT TD9636_LON TD9636_STAGE TD9636_WIND TD9636_PRES TD9635_LAT TD9635_LON TD9635_WIND TD9635_PRES TD9635_ROCI NEUMANN_LAT NEUMANN_LON NEUMANN_CLASS NEUMANN_WIND NEUMANN_PRES MLC_LAT MLC_LON MLC_CLASS MLC_WIND MLC_PRES USA_GUST BOM_GUST BOM_GUST_PER REUNION_GUST REUNION_GUST_PER USA_SEAHGT USA_SEARAD_NE USA_SEARAD_SE USA_SEARAD_SW USA_SEARAD_NW STORM_SPEED STORM_DIR
1947195N13133 1947 44 WP MM NOT_NAMED 1947-07-13 12:00:00 NR 12.5000 133.400 main 844 759 __________O___ -1 12.5000 133.400 2 22 294
1947195N13133 1947 44 WP MM NOT_NAMED 1947-07-13 15:00:00 NR 12.9414 132.398 main 749 662 __________P___ -1 12.9414 132.398 2 21 294
1947195N13133 1947 44 WP MM NOT_NAMED 1947-07-13 18:00:00 NR 13.3546 131.434 main 654 577 __________P___ -1 13.3546 131.434 2 20 293
1947195N13133 1947 44 WP MM NOT_NAMED 1947-07-13 21:00:00 NR 13.7153 130.554 main 577 507 __________P___ -1 13.7153 130.554 2 17 292
1947195N13133 1947 44 WP MM NOT_NAMED 1947-07-14 00:00:00 NR 14.0000 129.800 main 507 459 __________O___ -1 14.0000 129.800 2 14 290
1947195N13133 1947 44 WP MM NOT_NAMED 1947-07-14 03:00:00 NR 14.1965 129.201 main 459 418 __________P___ -1 14.1965 129.201 2 11 288
1947195N13133 1947 44 WP MM NOT_NAMED 1947-07-14 06:00:00 NR 14.3351 128.720 main 418 390 __________P___ -1 14.3351 128.720 2 9 287
1947195N13133 1947 44 WP MM NOT_NAMED 1947-07-14 09:00:00 NR 14.4563 128.305 main 397 373 __________P___ -1 14.4563 128.305 2 8 288
1947195N13133 1947 44 WP MM NOT_NAMED 1947-07-14 12:00:00 NR 14.6000 127.900 main 373 338 __________O___ -1 14.6000 127.900 2 10 292
1947195N13133 1947 44 WP MM NOT_NAMED 1947-07-14 15:00:00 NR 14.8215 127.381 main 338 296 __________P___ -1 14.8215 127.381 2 11 295
1947195N13133 1947 44 WP MM NOT_NAMED 1947-07-14 18:00:00 NR 15.0704 126.868 main 300 266 __________P___ -1 15.0704 126.868 2 11 298
1947195N13133 1947 44 WP MM NOT_NAMED 1947-07-14 21:00:00 NR 15.3341 126.396 main 266 255 __________P___ -1 15.3341 126.396 2 10 302
1947195N13133 1947 44 WP MM NOT_NAMED 1947-07-15 00:00:00 NR 15.6000 126.000 main 255 248 __________O___ -1 15.6000 126.000 2 8 306
1947195N13133 1947 44 WP MM NOT_NAMED 1947-07-15 03:00:00 NR 15.8251 125.700 main 251 251 __________P___ -1 15.8251 125.700 2 7 312
1947195N13133 1947 44 WP MM NOT_NAMED 1947-07-15 06:00:00 NR 16.0544 125.479 main 268 263 __________P___ -1 16.0544 125.479 2 6 323
1947195N13133 1947 44 WP MM NOT_NAMED 1947-07-15 09:00:00 NR 16.3065 125.319 main 278 278 __________P___ -1 16.3065 125.319 2 6 334
1947195N13133 1947 44 WP MM NOT_NAMED 1947-07-15 12:00:00 NR 16.6000 125.200 main 289 276 __________O___ -1 16.6000 125.200 2 7 342
1947195N13133 1947 44 WP MM NOT_NAMED 1947-07-15 15:00:00 NR 16.9477 125.106 main 276 266 __________P___ -1 16.9477 125.106 2 8 348
1947195N13133 1947 44 WP MM NOT_NAMED 1947-07-15 18:00:00 NR 17.3402 125.028 main 267 267 __________P___ -1 17.3402 125.028 2 8 351
1947195N13133 1947 44 WP MM NOT_NAMED 1947-07-15 21:00:00 NR 17.7627 124.961 main 280 273 __________P___ -1 17.7627 124.961 2 9 352
1947195N13133 1947 44 WP MM NOT_NAMED 1947-07-16 00:00:00 NR 18.2000 124.900 main 274 __________O___ -1 18.2000 124.900 2 9 353

デジタル台風データ・検索

IBTrACS Databaseについて

本データベースは、米国NOAAが公開する1842年以降の世界の熱帯低気圧のベストトラックデータアーカイブInternational Best Track Archive for Climate Stewardship (IBTrACS)を、ウェブで閲覧しやすい形式に変換したものです。

最終更新日:2021-12-08